Time,TemperatureF,DewpointF,PressureIn,WindDirection,WindDirectionDegrees,WindSpeedMPH,WindSpeedGustMPH,Humidity,HourlyPrecipIn,Conditions,Clouds,dailyrainin,SoftwareType,DateUTC
2013-03-11 00:07:00,36.6,16.0,30.21,SSE,159,3.0,6.0,43,0.00,,,0.00,weatherlink.com 1.10,2013-03-11 06:07:00,
2013-03-11 00:22:00,36.0,16.0,30.22,SSE,151,4.0,6.0,44,0.00,,,0.00,weatherlink.com 1.10,2013-03-11 06:22:00,
2013-03-11 00:38:00,36.4,17.0,30.23,SSE,152,1.0,7.0,45,0.00,,,0.00,weatherlink.com 1.10,2013-03-11 06:38:00,
2013-03-11 00:53:00,36.3,17.0,30.23,SSE,152,2.0,7.0,45,0.00,,,0.00,weatherlink.com 1.10,2013-03-11 06:53:00,
2013-03-11 01:08:00,33.5,17.0,30.24,SSE,155,5.0,7.0,50,0.00,,,0.00,weatherlink.com 1.10,2013-03-11 07:08:00,
2013-03-11 01:23:00,34.2,17.0,30.24,SSE,148,2.0,3.0,50,0.00,,,0.00,weatherlink.com 1.10,2013-03-11 07:23:00,
2013-03-11 01:38:00,33.3,17.0,30.24,SE,142,0.0,2.0,51,0.00,,,0.00,weatherlink.com 1.10,2013-03-11 07:38:00,
2013-03-11 01:53:00,34.8,18.0,30.25,SE,143,3.0,4.0,51,0.00,,,0.00,weatherlink.com 1.10,2013-03-11 07:53:00,
2013-03-11 02:08:00,34.9,18.0,30.25,SE,142,2.0,3.0,50,0.00,,,0.00,weatherlink.com 1.10,2013-03-11 08:08:00,
2013-03-11 02:23:00,30.1,16.0,30.25,SSE,147,2.0,4.0,56,0.00,,,0.00,weatherlink.com 1.10,2013-03-11 08:23:00,
2013-03-11 02:38:00,30.6,17.0,30.24,SE,143,1.0,3.0,58,0.00,,,0.00,weatherlink.com 1.10,2013-03-11 08:38:00,
2013-03-11 02:53:00,32.9,18.0,30.23,SSE,149,2.0,5.0,55,0.00,,,0.00,weatherlink.com 1.10,2013-03-11 08:53:00,
2013-03-11 03:08:00,32.4,18.0,30.23,SSE,163,3.0,5.0,55,0.00,,,0.00,weatherlink.com 1.10,2013-03-11 09:08:00,
2013-03-11 03:23:00,32.4,18.0,30.22,SSE,148,1.0,4.0,55,0.00,,,0.00,weatherlink.com 1.10,2013-03-11 09:23:00,
2013-03-11 03:38:00,29.5,16.0,30.22,SE,127,1.0,3.0,57,0.00,,,0.00,weatherlink.com 1.10,2013-03-11 09:38:00,
2013-03-11 03:53:00,31.3,18.0,30.21,SE,141,1.0,3.0,58,0.00,,,0.00,weatherlink.com 1.10,2013-03-11 09:53:00,
2013-03-11 04:08:00,31.3,18.0,30.21,SSE,153,1.0,4.0,58,0.00,,,0.00,weatherlink.com 1.10,2013-03-11 10:08:00,
2013-03-11 04:23:00,31.5,18.0,30.21,South,191,0.0,2.0,57,0.00,,,0.00,weatherlink.com 1.10,2013-03-11 10:23:00,
2013-03-11 04:38:00,29.1,16.0,30.20,SE,134,2.0,4.0,59,0.00,,,0.00,weatherlink.com 1.10,2013-03-11 10:38:00,
2013-03-11 04:53:00,28.1,18.0,30.20,ESE,115,0.0,1.0,65,0.00,,,0.00,weatherlink.com 1.10,2013-03-11 10:53:00,
2013-03-11 05:08:00,30.1,18.0,30.20,SE,143,3.0,4.0,60,0.00,,,0.00,weatherlink.com 1.10,2013-03-11 11:08:00,
2013-03-11 05:23:00,29.0,17.0,30.20,SSE,152,0.0,1.0,61,0.00,,,0.00,weatherlink.com 1.10,2013-03-11 11:23:00,
2013-03-11 05:38:00,29.1,17.0,30.20,SSE,150,0.0,1.0,62,0.00,,,0.00,weatherlink.com 1.10,2013-03-11 11:38:00,
2013-03-11 05:53:00,29.6,17.0,30.20,SSE,150,0.0,1.0,60,0.00,,,0.00,weatherlink.com 1.10,2013-03-11 11:53:00,
2013-03-11 06:09:00,30.2,17.0,30.20,SSE,163,0.0,1.0,59,0.00,,,0.00,weatherlink.com 1.10,2013-03-11 12:09:00,
2013-03-11 06:23:00,30.5,17.0,30.20,SSE,149,4.0,4.0,57,0.00,,,0.00,weatherlink.com 1.10,2013-03-11 12:23:00,
2013-03-11 06:38:00,28.9,16.0,30.20,SSE,148,3.0,4.0,59,0.00,,,0.00,weatherlink.com 1.10,2013-03-11 12:38:00,
2013-03-11 06:53:00,28.1,16.0,30.20,SSE,148,3.0,4.0,62,0.00,,,0.00,weatherlink.com 1.10,2013-03-11 12:53:00,
2013-03-11 07:08:00,30.8,17.0,30.20,SE,146,3.0,5.0,57,0.00,,,0.00,weatherlink.com 1.10,2013-03-11 13:08:00,
2013-03-11 07:23:00,27.4,15.0,30.20,SSE,148,4.0,6.0,61,0.00,,,0.00,weatherlink.com 1.10,2013-03-11 13:23:00,
2013-03-11 07:38:00,27.0,16.0,30.21,SSE,155,4.0,5.0,63,0.00,,,0.00,weatherlink.com 1.10,2013-03-11 13:38:00,
2013-03-11 07:53:00,28.8,16.0,30.21,SE,141,1.0,4.0,60,0.00,,,0.00,weatherlink.com 1.10,2013-03-11 13:53:00,
2013-03-11 08:08:00,31.6,17.0,30.22,SE,141,0.0,3.0,56,0.00,,,0.00,weatherlink.com 1.10,2013-03-11 14:08:00,
2013-03-11 08:23:00,33.4,18.0,30.22,South,184,1.0,4.0,54,0.00,,,0.00,weatherlink.com 1.10,2013-03-11 14:23:00,
2013-03-11 08:38:00,36.4,18.0,30.22,SSE,151,1.0,3.0,48,0.00,,,0.00,weatherlink.com 1.10,2013-03-11 14:38:00,
2013-03-11 08:53:00,38.1,19.0,30.23,ESE,123,0.0,2.0,47,0.00,,,0.00,weatherlink.com 1.10,2013-03-11 14:53:00,
2013-03-11 09:08:00,40.8,19.0,30.23,SSE,152,0.0,3.0,42,0.00,,,0.00,weatherlink.com 1.10,2013-03-11 15:08:00,
2013-03-11 09:23:00,41.7,19.0,30.23,SE,127,6.0,6.0,40,0.00,,,0.00,weatherlink.com 1.10,2013-03-11 15:23:00,
2013-03-11 09:38:00,42.9,19.0,30.23,ESE,123,2.0,8.0,38,0.00,,,0.00,weatherlink.com 1.10,2013-03-11 15:38:00,
2013-03-11 09:54:00,43.2,19.0,30.23,ESE,120,1.0,6.0,38,0.00,,,0.00,weatherlink.com 1.10,2013-03-11 15:54:00,
2013-03-11 10:09:00,44.3,19.0,30.23,SE,135,3.0,6.0,36,0.00,,,0.00,weatherlink.com 1.10,2013-03-11 16:09:00,
2013-03-11 10:24:00,45.9,19.0,30.22,SE,144,6.0,10.0,34,0.00,,,0.00,weatherlink.com 1.10,2013-03-11 16:24:00,
2013-03-11 10:39:00,47.4,19.0,30.21,NE,54,2.0,7.0,33,0.00,,,0.00,weatherlink.com 1.10,2013-03-11 16:39:00,
2013-03-11 10:54:00,48.3,18.0,30.22,SSE,163,4.0,6.0,30,0.00,,,0.00,weatherlink.com 1.10,2013-03-11 16:54:00,
2013-03-11 11:09:00,49.8,18.0,30.20,SSE,153,11.0,15.0,28,0.00,,,0.00,weatherlink.com 1.10,2013-03-11 17:09:00,
2013-03-11 11:24:00,50.3,17.0,30.20,SE,135,9.0,18.0,27,0.00,,,0.00,weatherlink.com 1.10,2013-03-11 17:24:00,
2013-03-11 11:39:00,51.0,18.0,30.19,ESE,120,7.0,16.0,27,0.00,,,0.00,weatherlink.com 1.10,2013-03-11 17:39:00,
2013-03-11 11:54:00,51.5,17.0,30.18,SE,138,10.0,16.0,26,0.00,,,0.00,weatherlink.com 1.10,2013-03-11 17:54:00,
2013-03-11 12:09:00,52.1,18.0,30.17,SE,131,10.0,18.0,26,0.00,,,0.00,weatherlink.com 1.10,2013-03-11 18:09:00,
2013-03-11 12:24:00,53.5,18.0,30.16,SSE,152,12.0,19.0,25,0.00,,,0.00,weatherlink.com 1.10,2013-03-11 18:24:00,
2013-03-11 12:39:00,53.8,18.0,30.14,SE,139,13.0,18.0,24,0.00,,,0.00,weatherlink.com 1.10,2013-03-11 18:39:00,
2013-03-11 12:54:00,54.9,18.0,30.14,SE,134,15.0,17.0,23,0.00,,,0.00,weatherlink.com 1.10,2013-03-11 18:54:00,
2013-03-11 13:09:00,56.2,17.0,30.13,SE,145,8.0,17.0,21,0.00,,,0.00,weatherlink.com 1.10,2013-03-11 19:09:00,
2013-03-11 13:24:00,57.2,18.0,30.11,SE,136,7.0,15.0,22,0.00,,,0.00,weatherlink.com 1.10,2013-03-11 19:24:00,
2013-03-11 13:39:00,58.3,18.0,30.10,SE,145,11.0,15.0,21,0.00,,,0.00,weatherlink.com 1.10,2013-03-11 19:39:00,
2013-03-11 13:54:00,59.4,16.0,30.09,SE,145,14.0,19.0,18,0.00,,,0.00,weatherlink.com 1.10,2013-03-11 19:54:00,
2013-03-11 14:09:00,59.3,14.0,30.08,SSE,149,6.0,19.0,17,0.00,,,0.00,weatherlink.com 1.10,2013-03-11 20:09:00,
2013-03-11 14:25:00,60.8,15.0,30.06,East,96,4.0,13.0,17,0.00,,,0.00,weatherlink.com 1.10,2013-03-11 20:25:00,
2013-03-11 14:39:00,60.5,14.0,30.06,SE,129,5.0,18.0,16,0.00,,,0.00,weatherlink.com 1.10,2013-03-11 20:39:00,
2013-03-11 14:55:00,60.6,12.0,30.05,SE,141,13.0,19.0,15,0.00,,,0.00,weatherlink.com 1.10,2013-03-11 20:55:00,
2013-03-11 15:10:00,61.4,13.0,30.05,SE,130,8.0,16.0,15,0.00,,,0.00,weatherlink.com 1.10,2013-03-11 21:10:00,
2013-03-11 15:25:00,61.4,12.0,30.04,SE,127,8.0,19.0,14,0.00,,,0.00,weatherlink.com 1.10,2013-03-11 21:25:00,
2013-03-11 15:40:00,61.8,12.0,30.03,ESE,116,9.0,20.0,14,0.00,,,0.00,weatherlink.com 1.10,2013-03-11 21:40:00,
2013-03-11 15:55:00,62.5,12.0,30.03,SE,145,13.0,17.0,14,0.00,,,0.00,weatherlink.com 1.10,2013-03-11 21:55:00,
2013-03-11 16:10:00,62.5,11.0,30.02,SE,146,6.0,17.0,13,0.00,,,0.00,weatherlink.com 1.10,2013-03-11 22:10:00,
2013-03-11 16:25:00,62.9,9.0,30.02,SE,132,6.0,17.0,12,0.00,,,0.00,weatherlink.com 1.10,2013-03-11 22:25:00,
2013-03-11 16:40:00,62.5,9.0,30.01,SE,146,12.0,18.0,12,0.00,,,0.00,weatherlink.com 1.10,2013-03-11 22:40:00,
2013-03-11 16:55:00,62.8,9.0,30.00,SE,139,6.0,14.0,12,0.00,,,0.00,weatherlink.com 1.10,2013-03-11 22:55:00,
2013-03-11 17:10:00,62.7,7.0,30.00,SE,124,9.0,18.0,11,0.00,,,0.00,weatherlink.com 1.10,2013-03-11 23:10:00,
2013-03-11 17:25:00,62.6,7.0,30.00,SE,135,15.0,17.0,11,0.00,,,0.00,weatherlink.com 1.10,2013-03-11 23:25:00,
2013-03-11 17:40:00,62.3,7.0,29.99,SE,127,13.0,16.0,11,0.00,,,0.00,weatherlink.com 1.10,2013-03-11 23:40:00,
2013-03-11 17:55:00,62.5,9.0,29.99,SE,132,6.0,17.0,12,0.00,,,0.00,weatherlink.com 1.10,2013-03-11 23:55:00,
2013-03-11 18:10:00,62.4,7.0,29.99,SE,128,13.0,16.0,11,0.00,,,0.00,weatherlink.com 1.10,2013-03-12 00:10:00,
2013-03-11 18:25:00,61.3,8.0,29.99,SSE,166,12.0,18.0,12,0.00,,,0.00,weatherlink.com 1.10,2013-03-12 00:25:00,
2013-03-11 18:40:00,60.1,9.0,29.99,SE,129,8.0,15.0,13,0.00,,,0.00,weatherlink.com 1.10,2013-03-12 00:40:00,
2013-03-11 18:55:00,59.1,8.0,30.00,SE,131,8.0,15.0,13,0.00,,,0.00,weatherlink.com 1.10,2013-03-12 00:55:00,
2013-03-11 19:10:00,57.8,9.0,30.00,SE,136,4.0,12.0,14,0.00,,,0.00,weatherlink.com 1.10,2013-03-12 01:10:00,
2013-03-11 19:25:00,56.7,9.0,30.00,SE,142,7.0,10.0,15,0.00,,,0.00,weatherlink.com 1.10,2013-03-12 01:25:00,
2013-03-11 19:40:00,55.2,9.0,30.01,SE,131,1.0,7.0,16,0.00,,,0.00,weatherlink.com 1.10,2013-03-12 01:40:00,
2013-03-11 19:55:00,54.0,11.0,30.01,SE,135,3.0,5.0,18,0.00,,,0.00,weatherlink.com 1.10,2013-03-12 01:55:00,
2013-03-11 20:10:00,53.6,12.0,30.02,ESE,120,1.0,7.0,19,0.00,,,0.00,weatherlink.com 1.10,2013-03-12 02:10:00,
2013-03-11 20:25:00,52.7,12.0,30.03,SSE,157,0.0,5.0,20,0.00,,,0.00,weatherlink.com 1.10,2013-03-12 02:25:00,
2013-03-11 20:40:00,52.9,13.0,30.03,SE,134,0.0,6.0,20,0.00,,,0.00,weatherlink.com 1.10,2013-03-12 02:40:00,
2013-03-11 20:55:00,50.8,15.0,30.04,ESE,105,1.0,2.0,24,0.00,,,0.00,weatherlink.com 1.10,2013-03-12 02:55:00,
2013-03-11 21:10:00,49.7,16.0,30.04,SSE,157,0.0,2.0,26,0.00,,,0.00,weatherlink.com 1.10,2013-03-12 03:10:00,
2013-03-11 21:25:00,49.5,17.0,30.05,South,181,0.0,2.0,27,0.00,,,0.00,weatherlink.com 1.10,2013-03-12 03:25:00,
2013-03-11 21:40:00,48.6,17.0,30.05,ESE,114,0.0,2.0,28,0.00,,,0.00,weatherlink.com 1.10,2013-03-12 03:40:00,
2013-03-11 21:55:00,48.9,19.0,30.06,ESE,122,3.0,6.0,30,0.00,,,0.00,weatherlink.com 1.10,2013-03-12 03:55:00,
2013-03-11 22:10:00,49.2,18.0,30.06,SE,136,0.0,5.0,29,0.00,,,0.00,weatherlink.com 1.10,2013-03-12 04:10:00,
2013-03-11 22:25:00,47.6,18.0,30.07,SE,125,2.0,2.0,31,0.00,,,0.00,weatherlink.com 1.10,2013-03-12 04:25:00,
2013-03-11 22:40:00,46.6,19.0,30.07,SE,136,4.0,6.0,33,0.00,,,0.00,weatherlink.com 1.10,2013-03-12 04:40:00,
2013-03-11 22:55:00,45.5,19.0,30.07,SE,143,4.0,5.0,35,0.00,,,0.00,weatherlink.com 1.10,2013-03-12 04:55:00,
2013-03-11 23:10:00,45.1,19.0,30.07,SE,142,3.0,7.0,36,0.00,,,0.00,weatherlink.com 1.10,2013-03-12 05:10:00,
2013-03-11 23:25:00,43.6,19.0,30.07,SE,127,4.0,8.0,38,0.00,,,0.00,weatherlink.com 1.10,2013-03-12 05:25:00,
2013-03-11 23:40:00,45.7,20.0,30.06,SE,143,7.0,11.0,36,0.00,,,0.00,weatherlink.com 1.10,2013-03-12 05:40:00,
2013-03-11 23:55:00,46.8,20.0,30.05,SE,140,9.0,18.0,35,0.00,,,0.00,weatherlink.com 1.10,2013-03-12 05:55:00,